Creston, Wyoming
Current Conditions -  °F | °C
As of 1:53 AM on Monday 22 Dec 2014 (Local Time) from KRWL Reporting Station
Clear Clear  
Wind Chill: 11°   Ceiling: Unl
Heat Index: 25°   Visibility: 10mi
Dew Point: 14°   Wind: 18mph
Humidity: 63%   Direction: 300°WNW
Pressure: 29.76"   Gusts: NA
Location:  41.7532°N, 107.372°W
Report Text: KRWL 220853Z AUTO 30016KT 10SM CLR M04/M10 A2976 RMK AO2 SLP083 T10391100 51003
Loading
Personal Weather Stations






























Interactive Weather Map New forecast layout! Learn more

10-Day Weather Forecast

Advertisements
Track Severe Weather on mobile